Steeltown, Texas
Current Conditions -  °F | °C
As of 2:53 PM on Tuesday 27 Jan 2015 (Local Time) from KBPT Reporting Station
Clear Clear  
Wind Chill: 78°   Ceiling: Unl
Heat Index: 78°   Visibility: 10mi
Dew Point: 40°   Wind: 3mph
Humidity: 25%   Direction: 30°NNE
Pressure: 30.1"   Gusts: NA
Location:  29.9495°N, 93.9207°W
Report Text: KBPT 272053Z 03003KT 10SM CLR 26/04 A3010 RMK AO2 SLP191 T02560044 56015
Loading
Personal Weather Stations






























Interactive Weather Map New forecast layout! Learn more

10-Day Weather Forecast

Advertisements
Track Severe Weather on mobile